sensor_id;sensor_type;location;lat;lon;timestamp;pressure;altitude;pressure_sealevel;temperature;humidity
4972;BME280;2501;51.214;6.768;2023-07-13T00:02:04;101185.97;;;17.34;58.57
4972;BME280;2501;51.214;6.768;2023-07-13T00:04:32;101181.66;;;17.27;58.84
4972;BME280;2501;51.214;6.768;2023-07-13T00:07:01;101182.56;;;17.25;58.84
4972;BME280;2501;51.214;6.768;2023-07-13T00:09:30;101181.72;;;17.23;59.18
4972;BME280;2501;51.214;6.768;2023-07-13T00:12:01;101188.78;;;17.22;58.97
4972;BME280;2501;51.214;6.768;2023-07-13T00:14:30;101188.88;;;17.16;59.26
4972;BME280;2501;51.214;6.768;2023-07-13T00:16:59;101183.69;;;17.10;59.55
4972;BME280;2501;51.214;6.768;2023-07-13T00:19:28;101182.84;;;17.07;59.90
4972;BME280;2501;51.214;6.768;2023-07-13T00:21:56;101184.66;;;17.03;60.21
4972;BME280;2501;51.214;6.768;2023-07-13T00:24:25;101180.16;;;17.08;60.21
4972;BME280;2501;51.214;6.768;2023-07-13T00:26:54;101178.50;;;17.01;60.66
4972;BME280;2501;51.214;6.768;2023-07-13T00:29:25;101181.97;;;17.06;60.74
4972;BME280;2501;51.214;6.768;2023-07-13T00:31:54;101181.09;;;17.04;60.84
4972;BME280;2501;51.214;6.768;2023-07-13T00:34:23;101185.50;;;17.05;60.85
4972;BME280;2501;51.214;6.768;2023-07-13T00:36:51;101181.13;;;17.02;60.82
4972;BME280;2501;51.214;6.768;2023-07-13T00:39:20;101188.22;;;16.99;61.18
4972;BME280;2501;51.214;6.768;2023-07-13T00:41:48;101184.78;;;16.95;61.63
4972;BME280;2501;51.214;6.768;2023-07-13T00:44:19;101184.81;;;16.92;61.78
4972;BME280;2501;51.214;6.768;2023-07-13T00:46:51;101196.34;;;16.87;61.77
4972;BME280;2501;51.214;6.768;2023-07-13T00:49:23;101185.88;;;16.79;61.94
4972;BME280;2501;51.214;6.768;2023-07-13T00:51:55;101185.78;;;16.84;62.00
4972;BME280;2501;51.214;6.768;2023-07-13T00:54:26;101185.91;;;16.76;62.33
4972;BME280;2501;51.214;6.768;2023-07-13T00:56:57;101191.19;;;16.78;62.35
4972;BME280;2501;51.214;6.768;2023-07-13T00:59:27;101195.59;;;16.77;62.54
4972;BME280;2501;51.214;6.768;2023-07-13T01:01:58;101185.88;;;16.78;62.85
4972;BME280;2501;51.214;6.768;2023-07-13T01:04:26;101191.22;;;16.75;62.91
4972;BME280;2501;51.214;6.768;2023-07-13T01:06:55;101193.06;;;16.66;63.49
4972;BME280;2501;51.214;6.768;2023-07-13T01:09:26;101178.06;;;16.65;63.59
4972;BME280;2501;51.214;6.768;2023-07-13T01:11:54;101185.19;;;16.59;63.96
4972;BME280;2501;51.214;6.768;2023-07-13T01:14:23;101180.81;;;16.55;64.30
4972;BME280;2501;51.214;6.768;2023-07-13T01:16:51;101182.56;;;16.59;64.43
4972;BME280;2501;51.214;6.768;2023-07-13T01:19:32;101180.00;;;16.48;64.65
4972;BME280;2501;51.214;6.768;2023-07-13T01:22:07;101188.03;;;16.44;64.88
4972;BME280;2501;51.214;6.768;2023-07-13T01:24:37;101190.75;;;16.36;65.46
4972;BME280;2501;51.214;6.768;2023-07-13T01:27:07;101191.63;;;16.35;65.73
4972;BME280;2501;51.214;6.768;2023-07-13T01:29:37;101186.38;;;16.32;65.96
4972;BME280;2501;51.214;6.768;2023-07-13T01:32:08;101187.22;;;16.37;66.18
4972;BME280;2501;51.214;6.768;2023-07-13T01:34:37;101182.84;;;16.31;66.24
4972;BME280;2501;51.214;6.768;2023-07-13T01:37:10;101189.91;;;16.31;66.60
4972;BME280;2501;51.214;6.768;2023-07-13T01:39:40;101187.28;;;16.28;66.69
4972;BME280;2501;51.214;6.768;2023-07-13T01:42:08;101182.97;;;16.21;67.28
4972;BME280;2501;51.214;6.768;2023-07-13T01:44:37;101192.72;;;16.16;67.49
4972;BME280;2501;51.214;6.768;2023-07-13T01:47:05;101195.31;;;16.23;67.76
4972;BME280;2501;51.214;6.768;2023-07-13T01:49:34;101193.56;;;16.21;67.96
4972;BME280;2501;51.214;6.768;2023-07-13T01:52:10;101197.03;;;16.27;67.80
4972;BME280;2501;51.214;6.768;2023-07-13T01:54:38;101190.88;;;16.25;67.74
4972;BME280;2501;51.214;6.768;2023-07-13T01:57:06;101193.59;;;16.15;68.15
4972;BME280;2501;51.214;6.768;2023-07-13T01:59:35;101192.75;;;16.11;68.56
4972;BME280;2501;51.214;6.768;2023-07-13T02:02:04;101191.88;;;16.12;68.46
4972;BME280;2501;51.214;6.768;2023-07-13T02:04:32;101197.22;;;16.09;68.74
4972;BME280;2501;51.214;6.768;2023-07-13T02:07:01;101191.03;;;16.09;68.78
4972;BME280;2501;51.214;6.768;2023-07-13T02:09:32;101193.72;;;16.06;69.06
4972;BME280;2501;51.214;6.768;2023-07-13T02:12:00;101193.69;;;16.09;69.26
4972;BME280;2501;51.214;6.768;2023-07-13T02:14:29;101195.50;;;16.04;69.25
4972;BME280;2501;51.214;6.768;2023-07-13T02:16:57;101186.72;;;15.98;69.39
4972;BME280;2501;51.214;6.768;2023-07-13T02:19:25;101197.28;;;15.98;69.52
4972;BME280;2501;51.214;6.768;2023-07-13T02:21:54;101204.38;;;15.96;69.99
4972;BME280;2501;51.214;6.768;2023-07-13T02:24:22;101199.03;;;16.02;70.01
4972;BME280;2501;51.214;6.768;2023-07-13T02:26:53;101200.03;;;15.91;69.95
4972;BME280;2501;51.214;6.768;2023-07-13T02:29:22;101206.13;;;15.96;70.57
4972;BME280;2501;51.214;6.768;2023-07-13T02:31:50;101208.78;;;15.94;70.56
4972;BME280;2501;51.214;6.768;2023-07-13T02:34:18;101207.94;;;15.92;70.68
4972;BME280;2501;51.214;6.768;2023-07-13T02:36:47;101214.94;;;15.95;71.19
4972;BME280;2501;51.214;6.768;2023-07-13T02:39:15;101213.16;;;15.98;70.93
4972;BME280;2501;51.214;6.768;2023-07-13T02:41:44;101201.72;;;15.98;70.98
4972;BME280;2501;51.214;6.768;2023-07-13T02:44:15;101204.19;;;16.15;71.20
4972;BME280;2501;51.214;6.768;2023-07-13T02:46:43;101204.22;;;16.12;70.60
4972;BME280;2501;51.214;6.768;2023-07-13T02:49:12;101199.91;;;16.03;70.97
4972;BME280;2501;51.214;6.768;2023-07-13T02:51:40;101203.44;;;16.00;71.19
4972;BME280;2501;51.214;6.768;2023-07-13T02:54:09;101213.25;;;15.92;71.75
4972;BME280;2501;51.214;6.768;2023-07-13T02:56:39;101207.91;;;15.94;72.00
4972;BME280;2501;51.214;6.768;2023-07-13T02:59:08;101213.28;;;15.88;72.01
4972;BME280;2501;51.214;6.768;2023-07-13T03:01:40;101209.75;;;15.89;72.40
4972;BME280;2501;51.214;6.768;2023-07-13T03:04:08;101213.28;;;15.86;72.34
4972;BME280;2501;51.214;6.768;2023-07-13T03:06:37;101211.50;;;15.91;72.83
4972;BME280;2501;51.214;6.768;2023-07-13T03:09:06;101216.03;;;15.73;73.01
4972;BME280;2501;51.214;6.768;2023-07-13T03:11:34;101212.53;;;15.72;73.09
4972;BME280;2501;51.214;6.768;2023-07-13T03:14:02;101213.31;;;15.83;73.56
4972;BME280;2501;51.214;6.768;2023-07-13T03:16:31;101218.69;;;15.74;73.37
4972;BME280;2501;51.214;6.768;2023-07-13T03:19:02;101220.47;;;15.71;73.70
4972;BME280;2501;51.214;6.768;2023-07-13T03:21:31;101222.22;;;15.72;73.74
4972;BME280;2501;51.214;6.768;2023-07-13T03:23:59;101224.78;;;15.79;73.85
4972;BME280;2501;51.214;6.768;2023-07-13T03:26:27;101217.84;;;15.64;74.24
4972;BME280;2501;51.214;6.768;2023-07-13T03:28:56;101223.16;;;15.64;74.38
4972;BME280;2501;51.214;6.768;2023-07-13T03:31:26;101221.38;;;15.63;74.82
4972;BME280;2501;51.214;6.768;2023-07-13T03:33:55;101224.81;;;15.76;74.20
4972;BME280;2501;51.214;6.768;2023-07-13T03:36:28;101227.53;;;15.70;74.40
4972;BME280;2501;51.214;6.768;2023-07-13T03:38:59;101226.75;;;15.57;74.81
4972;BME280;2501;51.214;6.768;2023-07-13T03:41:28;101231.16;;;15.57;75.02
4972;BME280;2501;51.214;6.768;2023-07-13T03:43:57;101231.94;;;15.70;74.94
4972;BME280;2501;51.214;6.768;2023-07-13T03:46:25;101228.38;;;15.74;74.36
4972;BME280;2501;51.214;6.768;2023-07-13T03:48:54;101236.31;;;15.72;74.31
4972;BME280;2501;51.214;6.768;2023-07-13T03:51:22;101239.78;;;15.80;74.25
4972;BME280;2501;51.214;6.768;2023-07-13T03:53:53;101247.72;;;15.79;74.08
4972;BME280;2501;51.214;6.768;2023-07-13T03:56:22;101242.44;;;15.79;73.74
4972;BME280;2501;51.214;6.768;2023-07-13T03:58:51;101245.97;;;15.78;73.68
4972;BME280;2501;51.214;6.768;2023-07-13T04:01:21;101253.81;;;15.90;73.24
4972;BME280;2501;51.214;6.768;2023-07-13T04:03:50;101257.28;;;15.93;72.85
4972;BME280;2501;51.214;6.768;2023-07-13T04:06:20;101254.72;;;15.87;72.87
4972;BME280;2501;51.214;6.768;2023-07-13T04:08:54;101261.69;;;15.94;72.53
4972;BME280;2501;51.214;6.768;2023-07-13T04:11:25;101261.78;;;15.85;72.73
4972;BME280;2501;51.214;6.768;2023-07-13T04:13:54;101267.94;;;15.90;72.67
4972;BME280;2501;51.214;6.768;2023-07-13T04:16:22;101271.44;;;15.92;72.41
4972;BME280;2501;51.214;6.768;2023-07-13T04:18:51;101264.34;;;15.94;72.48
4972;BME280;2501;51.214;6.768;2023-07-13T04:21:25;101263.53;;;15.89;72.83
4972;BME280;2501;51.214;6.768;2023-07-13T04:23:56;101262.66;;;15.84;72.76
4972;BME280;2501;51.214;6.768;2023-07-13T04:26:25;101271.50;;;15.83;72.80
4972;BME280;2501;51.214;6.768;2023-07-13T04:28:53;101271.47;;;15.85;72.99
4972;BME280;2501;51.214;6.768;2023-07-13T04:31:22;101271.47;;;15.88;72.76
4972;BME280;2501;51.214;6.768;2023-07-13T04:33:50;101270.47;;;16.01;72.62
4972;BME280;2501;51.214;6.768;2023-07-13T04:36:19;101270.44;;;16.04;72.16
4972;BME280;2501;51.214;6.768;2023-07-13T04:38:47;101269.56;;;16.04;72.24
4972;BME280;2501;51.214;6.768;2023-07-13T04:41:18;101274.88;;;16.02;72.69
4972;BME280;2501;51.214;6.768;2023-07-13T04:43:47;101272.22;;;16.04;72.79
4972;BME280;2501;51.214;6.768;2023-07-13T04:46:17;101272.19;;;16.10;72.51
4972;BME280;2501;51.214;6.768;2023-07-13T04:48:45;101265.88;;;16.23;72.55
4972;BME280;2501;51.214;6.768;2023-07-13T04:51:14;101268.44;;;16.32;71.58
4972;BME280;2501;51.214;6.768;2023-07-13T04:53:42;101273.78;;;16.26;71.63
4972;BME280;2501;51.214;6.768;2023-07-13T04:56:11;101281.00;;;16.10;72.43
4972;BME280;2501;51.214;6.768;2023-07-13T04:58:42;101277.41;;;16.14;72.86
4972;BME280;2501;51.214;6.768;2023-07-13T05:01:10;101277.22;;;16.37;72.76
4972;BME280;2501;51.214;6.768;2023-07-13T05:03:39;101276.47;;;16.23;72.46
4972;BME280;2501;51.214;6.768;2023-07-13T05:06:08;101278.13;;;16.33;72.17
4972;BME280;2501;51.214;6.768;2023-07-13T05:08:39;101281.59;;;16.40;72.40
4972;BME280;2501;51.214;6.768;2023-07-13T05:11:08;101282.47;;;16.42;72.55
4972;BME280;2501;51.214;6.768;2023-07-13T05:13:36;101289.53;;;16.43;72.16
4972;BME280;2501;51.214;6.768;2023-07-13T05:16:07;101284.25;;;16.40;72.23
4972;BME280;2501;51.214;6.768;2023-07-13T05:18:36;101292.00;;;16.59;72.04
4972;BME280;2501;51.214;6.768;2023-07-13T05:21:07;101292.03;;;16.56;72.52
4972;BME280;2501;51.214;6.768;2023-07-13T05:23:36;101285.81;;;16.59;71.79
4972;BME280;2501;51.214;6.768;2023-07-13T05:26:07;101292.94;;;16.52;72.59
4972;BME280;2501;51.214;6.768;2023-07-13T05:28:35;101303.41;;;16.69;72.39
4972;BME280;2501;51.214;6.768;2023-07-13T05:31:07;101306.03;;;16.72;72.18
4972;BME280;2501;51.214;6.768;2023-07-13T05:33:35;101310.50;;;16.65;72.24
4972;BME280;2501;51.214;6.768;2023-07-13T05:36:04;101305.00;;;16.82;72.50
4972;BME280;2501;51.214;6.768;2023-07-13T05:38:33;101313.66;;;16.99;71.41
4972;BME280;2501;51.214;6.768;2023-07-13T05:41:01;101311.69;;;17.17;71.21
4972;BME280;2501;51.214;6.768;2023-07-13T05:43:30;101317.16;;;17.01;71.16
4972;BME280;2501;51.214;6.768;2023-07-13T05:45:58;101321.53;;;17.05;71.52
4972;BME280;2501;51.214;6.768;2023-07-13T05:48:29;101322.56;;;16.94;71.95
4972;BME280;2501;51.214;6.768;2023-07-13T05:50:58;101318.13;;;16.96;72.30
4972;BME280;2501;51.214;6.768;2023-07-13T05:53:26;101323.22;;;17.14;72.00
4972;BME280;2501;51.214;6.768;2023-07-13T05:55:55;101322.19;;;17.26;71.20
4972;BME280;2501;51.214;6.768;2023-07-13T05:58:24;101321.47;;;17.12;71.65
4972;BME280;2501;51.214;6.768;2023-07-13T06:00:59;101321.34;;;17.22;71.11
4972;BME280;2501;51.214;6.768;2023-07-13T06:03:31;101320.19;;;17.45;70.34
4972;BME280;2501;51.214;6.768;2023-07-13T06:06:00;101322.13;;;17.30;71.48
4972;BME280;2501;51.214;6.768;2023-07-13T06:08:28;101319.97;;;17.58;71.01
4972;BME280;2501;51.214;6.768;2023-07-13T06:11:02;101328.00;;;18.17;68.65
4972;BME280;2501;51.214;6.768;2023-07-13T06:13:30;101335.09;;;17.52;70.11
4972;BME280;2501;51.214;6.768;2023-07-13T06:15:59;101338.66;;;17.49;70.79
4972;BME280;2501;51.214;6.768;2023-07-13T06:18:32;101334.38;;;18.02;69.68
4972;BME280;2501;51.214;6.768;2023-07-13T06:21:06;101335.16;;;18.10;69.15
4972;BME280;2501;51.214;6.768;2023-07-13T06:23:34;101337.47;;;17.74;69.16
4972;BME280;2501;51.214;6.768;2023-07-13T06:26:03;101337.19;;;17.93;69.54
4972;BME280;2501;51.214;6.768;2023-07-13T06:28:32;101338.03;;;17.96;69.10
4972;BME280;2501;51.214;6.768;2023-07-13T06:31:01;101340.56;;;18.04;69.09
4972;BME280;2501;51.214;6.768;2023-07-13T06:33:32;101350.84;;;18.25;69.12
4972;BME280;2501;51.214;6.768;2023-07-13T06:36:01;101345.13;;;18.50;68.24
4972;BME280;2501;51.214;6.768;2023-07-13T06:38:30;101349.25;;;19.15;65.58
4972;BME280;2501;51.214;6.768;2023-07-13T06:40:58;101356.13;;;19.25;64.76
4972;BME280;2501;51.214;6.768;2023-07-13T06:43:27;101344.22;;;19.43;63.24
4972;BME280;2501;51.214;6.768;2023-07-13T06:45:57;101358.56;;;19.37;63.53
4972;BME280;2501;51.214;6.768;2023-07-13T06:48:26;101351.38;;;19.39;63.26
4972;BME280;2501;51.214;6.768;2023-07-13T06:50:57;101353.22;;;18.93;64.47
4972;BME280;2501;51.214;6.768;2023-07-13T06:53:25;101356.03;;;19.30;64.38
4972;BME280;2501;51.214;6.768;2023-07-13T06:55:54;101366.66;;;18.87;65.24
4972;BME280;2501;51.214;6.768;2023-07-13T06:58:22;101368.44;;;18.85;66.27
4972;BME280;2501;51.214;6.768;2023-07-13T07:00:52;101365.88;;;18.80;66.17
4972;BME280;2501;51.214;6.768;2023-07-13T07:03:20;101371.19;;;19.25;65.86
4972;BME280;2501;51.214;6.768;2023-07-13T07:05:49;101362.16;;;19.35;63.49
4972;BME280;2501;51.214;6.768;2023-07-13T07:08:20;101372.81;;;19.33;64.26
4972;BME280;2501;51.214;6.768;2023-07-13T07:10:48;101375.84;;;19.58;62.97
4972;BME280;2501;51.214;6.768;2023-07-13T07:13:19;101371.28;;;19.65;62.63
4972;BME280;2501;51.214;6.768;2023-07-13T07:15:49;101378.41;;;19.20;63.43
4972;BME280;2501;51.214;6.768;2023-07-13T07:18:18;101378.63;;;19.07;64.58
4972;BME280;2501;51.214;6.768;2023-07-13T07:20:49;101378.94;;;18.92;64.80
4972;BME280;2501;51.214;6.768;2023-07-13T07:23:21;101383.22;;;18.49;66.40
4972;BME280;2501;51.214;6.768;2023-07-13T07:25:50;101383.53;;;18.83;66.63
4972;BME280;2501;51.214;6.768;2023-07-13T07:28:19;101378.25;;;19.27;65.65
4972;BME280;2501;51.214;6.768;2023-07-13T07:30:45;101374.63;;;19.74;62.84
4972;BME280;2501;51.214;6.768;2023-07-13T07:33:14;101385.44;;;19.67;62.81
4972;BME280;2501;51.214;6.768;2023-07-13T07:35:42;101377.53;;;19.64;62.79
4972;BME280;2501;51.214;6.768;2023-07-13T07:38:11;101383.34;;;19.81;62.58
4972;BME280;2501;51.214;6.768;2023-07-13T07:40:42;101382.78;;;19.67;62.59
4972;BME280;2501;51.214;6.768;2023-07-13T07:43:12;101381.63;;;19.78;62.30
4972;BME280;2501;51.214;6.768;2023-07-13T07:45:40;101385.84;;;19.90;61.44
4972;BME280;2501;51.214;6.768;2023-07-13T07:48:09;101375.97;;;20.31;61.36
4972;BME280;2501;51.214;6.768;2023-07-13T07:50:38;101379.19;;;20.45;60.75
4972;BME280;2501;51.214;6.768;2023-07-13T07:53:06;101376.53;;;20.79;58.78
4972;BME280;2501;51.214;6.768;2023-07-13T07:55:35;101376.41;;;20.12;60.77
4972;BME280;2501;51.214;6.768;2023-07-13T07:58:07;101378.31;;;19.69;63.00
4972;BME280;2501;51.214;6.768;2023-07-13T08:00:36;101377.09;;;20.59;59.95
4972;BME280;2501;51.214;6.768;2023-07-13T08:03:04;101376.47;;;20.82;58.52
4972;BME280;2501;51.214;6.768;2023-07-13T08:05:35;101386.56;;;19.95;61.08
4972;BME280;2501;51.214;6.768;2023-07-13T08:08:04;101374.53;;;20.55;60.62
4972;BME280;2501;51.214;6.768;2023-07-13T08:10:35;101381.63;;;20.56;59.75
4972;BME280;2501;51.214;6.768;2023-07-13T08:13:03;101375.66;;;20.78;58.63
4972;BME280;2501;51.214;6.768;2023-07-13T08:15:35;101378.59;;;21.02;58.55
4972;BME280;2501;51.214;6.768;2023-07-13T08:18:05;101367.19;;;20.97;58.54
4972;BME280;2501;51.214;6.768;2023-07-13T08:20:36;101374.31;;;20.62;59.19
4972;BME280;2501;51.214;6.768;2023-07-13T08:23:05;101374.03;;;20.00;61.75
4972;BME280;2501;51.214;6.768;2023-07-13T08:25:35;101363.78;;;20.22;62.24
4972;BME280;2501;51.214;6.768;2023-07-13T08:28:05;101367.34;;;21.25;58.25
4972;BME280;2501;51.214;6.768;2023-07-13T08:30:36;101366.19;;;20.68;59.05
4972;BME280;2501;51.214;6.768;2023-07-13T08:33:04;101365.69;;;20.87;58.70
4972;BME280;2501;51.214;6.768;2023-07-13T08:35:33;101363.88;;;21.21;58.15
4972;BME280;2501;51.214;6.768;2023-07-13T08:38:01;101363.47;;;21.02;59.03
4972;BME280;2501;51.214;6.768;2023-07-13T08:40:31;101366.81;;;21.10;59.26
4972;BME280;2501;51.214;6.768;2023-07-13T08:43:02;101362.31;;;20.80;60.34
4972;BME280;2501;51.214;6.768;2023-07-13T08:45:41;101359.97;;;21.00;60.31
4972;BME280;2501;51.214;6.768;2023-07-13T08:48:15;101361.56;;;20.75;61.54
4972;BME280;2501;51.214;6.768;2023-07-13T08:50:49;101356.34;;;21.35;58.53
4972;BME280;2501;51.214;6.768;2023-07-13T08:53:21;101357.09;;;21.70;56.88
4972;BME280;2501;51.214;6.768;2023-07-13T08:55:57;101350.50;;;21.52;57.04
4972;BME280;2501;51.214;6.768;2023-07-13T08:58:26;101355.25;;;21.11;58.75
4972;BME280;2501;51.214;6.768;2023-07-13T09:01:06;101358.25;;;21.30;58.13
4972;BME280;2501;51.214;6.768;2023-07-13T09:03:41;101356.19;;;21.09;58.42
4972;BME280;2501;51.214;6.768;2023-07-13T09:06:12;101359.66;;;21.12;58.97
4972;BME280;2501;51.214;6.768;2023-07-13T09:08:52;101360.63;;;21.10;59.26
4972;BME280;2501;51.214;6.768;2023-07-13T09:11:42;101361.25;;;21.19;58.88
4972;BME280;2501;51.214;6.768;2023-07-13T09:14:42;101363.56;;;21.63;58.26
4972;BME280;2501;51.214;6.768;2023-07-13T09:17:17;101358.56;;;22.09;56.19
4972;BME280;2501;51.214;6.768;2023-07-13T09:19:49;101378.38;;;21.43;56.95
4972;BME280;2501;51.214;6.768;2023-07-13T09:22:25;101379.69;;;21.87;57.21
4972;BME280;2501;51.214;6.768;2023-07-13T09:25:00;101369.25;;;21.80;55.74
4972;BME280;2501;51.214;6.768;2023-07-13T09:27:35;101359.16;;;22.17;54.98
4972;BME280;2501;51.214;6.768;2023-07-13T09:30:23;101373.13;;;22.27;54.23
4972;BME280;2501;51.214;6.768;2023-07-13T09:32:55;101368.34;;;21.81;53.81
4972;BME280;2501;51.214;6.768;2023-07-13T09:35:26;101375.19;;;21.89;54.90
4972;BME280;2501;51.214;6.768;2023-07-13T09:38:02;101383.50;;;21.17;57.44
4972;BME280;2501;51.214;6.768;2023-07-13T09:40:40;101376.25;;;21.54;57.40
4972;BME280;2501;51.214;6.768;2023-07-13T09:43:13;101382.03;;;21.98;55.25
4972;BME280;2501;51.214;6.768;2023-07-13T09:45:45;101366.59;;;21.80;54.64
4972;BME280;2501;51.214;6.768;2023-07-13T09:48:18;101381.81;;;21.76;55.56
4972;BME280;2501;51.214;6.768;2023-07-13T09:50:47;101384.78;;;21.36;56.25
4972;BME280;2501;51.214;6.768;2023-07-13T09:53:18;101379.19;;;21.75;55.13
4972;BME280;2501;51.214;6.768;2023-07-13T09:55:48;101381.69;;;22.10;54.67
4972;BME280;2501;51.214;6.768;2023-07-13T09:58:18;101385.47;;;22.03;53.77
4972;BME280;2501;51.214;6.768;2023-07-13T10:01:00;101381.09;;;22.01;53.67
4972;BME280;2501;51.214;6.768;2023-07-13T10:03:33;101379.91;;;22.37;52.69
4972;BME280;2501;51.214;6.768;2023-07-13T10:06:14;101389.84;;;22.06;53.69
4972;BME280;2501;51.214;6.768;2023-07-13T10:08:44;101388.19;;;22.30;53.08
4972;BME280;2501;51.214;6.768;2023-07-13T10:11:23;101391.50;;;22.10;52.50
4972;BME280;2501;51.214;6.768;2023-07-13T10:13:53;101396.94;;;22.07;53.08
4972;BME280;2501;51.214;6.768;2023-07-13T10:16:24;101399.72;;;22.02;52.65
4972;BME280;2501;51.214;6.768;2023-07-13T10:18:58;101382.41;;;22.15;52.85
4972;BME280;2501;51.214;6.768;2023-07-13T10:21:30;101386.13;;;22.38;51.84
4972;BME280;2501;51.214;6.768;2023-07-13T10:24:05;101381.44;;;21.88;52.18
4972;BME280;2501;51.214;6.768;2023-07-13T10:29:37;101392.94;;;22.20;52.75
4972;BME280;2501;51.214;6.768;2023-07-13T10:32:09;101391.91;;;22.78;50.38
4972;BME280;2501;51.214;6.768;2023-07-13T10:34:45;101393.25;;;22.65;49.88
4972;BME280;2501;51.214;6.768;2023-07-13T10:37:19;101395.72;;;22.98;49.94
4972;BME280;2501;51.214;6.768;2023-07-13T10:39:51;101393.22;;;22.91;48.97
4972;BME280;2501;51.214;6.768;2023-07-13T10:42:27;101400.09;;;21.90;51.41
4972;BME280;2501;51.214;6.768;2023-07-13T10:44:56;101389.03;;;21.73;52.50
4972;BME280;2501;51.214;6.768;2023-07-13T10:47:25;101397.53;;;22.16;51.82
4972;BME280;2501;51.214;6.768;2023-07-13T10:49:58;101395.31;;;21.72;51.72
4972;BME280;2501;51.214;6.768;2023-07-13T10:52:42;101403.63;;;21.30;54.34
4972;BME280;2501;51.214;6.768;2023-07-13T10:55:33;101393.84;;;21.62;53.90
4972;BME280;2501;51.214;6.768;2023-07-13T10:58:12;101402.31;;;21.76;54.25
4972;BME280;2501;51.214;6.768;2023-07-13T11:00:47;101394.69;;;22.49;51.95
4972;BME280;2501;51.214;6.768;2023-07-13T11:03:19;101402.56;;;23.05;50.85
4972;BME280;2501;51.214;6.768;2023-07-13T11:06:04;101393.47;;;23.10;49.14
4972;BME280;2501;51.214;6.768;2023-07-13T11:08:36;101396.44;;;23.26;49.27
4972;BME280;2501;51.214;6.768;2023-07-13T11:11:34;101400.34;;;22.92;49.34
4972;BME280;2501;51.214;6.768;2023-07-13T11:14:05;101384.09;;;22.99;49.67
4972;BME280;2501;51.214;6.768;2023-07-13T11:16:43;101390.00;;;23.07;48.87
4972;BME280;2501;51.214;6.768;2023-07-13T11:19:28;101396.84;;;22.90;49.17
4972;BME280;2501;51.214;6.768;2023-07-13T11:22:23;101385.38;;;22.87;48.65
4972;BME280;2501;51.214;6.768;2023-07-13T11:24:57;101379.63;;;22.71;48.70
4972;BME280;2501;51.214;6.768;2023-07-13T11:27:41;101383.03;;;22.78;49.24
4972;BME280;2501;51.214;6.768;2023-07-13T11:30:31;101385.22;;;22.91;48.73
4972;BME280;2501;51.214;6.768;2023-07-13T11:33:10;101375.13;;;23.00;48.39
4972;BME280;2501;51.214;6.768;2023-07-13T11:35:57;101372.34;;;23.03;48.22
4972;BME280;2501;51.214;6.768;2023-07-13T11:38:35;101373.13;;;22.53;48.37
4972;BME280;2501;51.214;6.768;2023-07-13T11:41:10;101374.72;;;22.05;49.81
4972;BME280;2501;51.214;6.768;2023-07-13T11:43:42;101371.63;;;21.89;51.38
4972;BME280;2501;51.214;6.768;2023-07-13T11:46:15;101376.56;;;22.31;50.77
4972;BME280;2501;51.214;6.768;2023-07-13T11:48:44;101372.28;;;22.79;49.21
4972;BME280;2501;51.214;6.768;2023-07-13T11:51:20;101357.50;;;22.68;49.00
4972;BME280;2501;51.214;6.768;2023-07-13T11:53:54;101361.75;;;23.00;48.90
4972;BME280;2501;51.214;6.768;2023-07-13T11:56:24;101355.94;;;23.12;47.46
4972;BME280;2501;51.214;6.768;2023-07-13T11:58:55;101349.72;;;23.11;47.99
4972;BME280;2501;51.214;6.768;2023-07-13T12:01:26;101349.69;;;23.36;47.24
4972;BME280;2501;51.214;6.768;2023-07-13T12:03:58;101355.13;;;23.10;47.66
4972;BME280;2501;51.214;6.768;2023-07-13T12:06:30;101359.13;;;22.98;47.79
4972;BME280;2501;51.214;6.768;2023-07-13T12:09:14;101353.31;;;23.10;48.05
4972;BME280;2501;51.214;6.768;2023-07-13T12:11:44;101344.22;;;23.86;46.38
4972;BME280;2501;51.214;6.768;2023-07-13T12:14:14;101347.16;;;24.02;44.89
4972;BME280;2501;51.214;6.768;2023-07-13T12:16:44;101334.31;;;23.88;42.74
4972;BME280;2501;51.214;6.768;2023-07-13T12:19:18;101344.69;;;23.50;44.41
4972;BME280;2501;51.214;6.768;2023-07-13T12:21:49;101338.94;;;24.06;44.39
4972;BME280;2501;51.214;6.768;2023-07-13T12:24:22;101346.41;;;24.20;43.35
4972;BME280;2501;51.214;6.768;2023-07-13T12:26:52;101336.94;;;23.89;43.52
4972;BME280;2501;51.214;6.768;2023-07-13T12:29:21;101341.31;;;24.36;42.39
4972;BME280;2501;51.214;6.768;2023-07-13T12:31:50;101349.53;;;24.53;42.30
4972;BME280;2501;51.214;6.768;2023-07-13T12:34:21;101345.22;;;24.05;42.06
4972;BME280;2501;51.214;6.768;2023-07-13T12:36:52;101343.13;;;24.35;41.17
4972;BME280;2501;51.214;6.768;2023-07-13T12:39:28;101347.06;;;24.69;40.97
4972;BME280;2501;51.214;6.768;2023-07-13T12:42:16;101347.06;;;24.89;40.28
4972;BME280;2501;51.214;6.768;2023-07-13T12:44:46;101341.63;;;24.90;40.35
4972;BME280;2501;51.214;6.768;2023-07-13T12:47:16;101342.59;;;25.10;39.54
4972;BME280;2501;51.214;6.768;2023-07-13T12:49:48;101342.72;;;24.24;40.65
4972;BME280;2501;51.214;6.768;2023-07-13T12:52:21;101338.06;;;24.70;40.49
4972;BME280;2501;51.214;6.768;2023-07-13T12:54:57;101341.22;;;24.79;40.17
4972;BME280;2501;51.214;6.768;2023-07-13T12:57:26;101344.19;;;24.93;39.83
4972;BME280;2501;51.214;6.768;2023-07-13T12:59:55;101337.31;;;24.02;41.88
4972;BME280;2501;51.214;6.768;2023-07-13T13:02:29;101340.13;;;24.21;41.60
4972;BME280;2501;51.214;6.768;2023-07-13T13:04:58;101342.03;;;23.95;42.01
4972;BME280;2501;51.214;6.768;2023-07-13T13:07:28;101344.09;;;24.11;41.58
4972;BME280;2501;51.214;6.768;2023-07-13T13:09:59;101342.72;;;24.01;42.04
4972;BME280;2501;51.214;6.768;2023-07-13T13:12:28;101342.50;;;24.28;41.67
4972;BME280;2501;51.214;6.768;2023-07-13T13:14:57;101344.66;;;23.97;42.65
4972;BME280;2501;51.214;6.768;2023-07-13T13:17:29;101350.41;;;24.94;40.25
4972;BME280;2501;51.214;6.768;2023-07-13T13:19:59;101344.75;;;24.39;40.77
4972;BME280;2501;51.214;6.768;2023-07-13T13:22:27;101349.78;;;24.47;41.07
4972;BME280;2501;51.214;6.768;2023-07-13T13:24:59;101347.56;;;24.77;40.26
4972;BME280;2501;51.214;6.768;2023-07-13T13:27:27;101345.22;;;24.05;41.82
4972;BME280;2501;51.214;6.768;2023-07-13T13:29:59;101359.50;;;24.27;41.33
4972;BME280;2501;51.214;6.768;2023-07-13T13:32:27;101347.25;;;24.64;40.38
4972;BME280;2501;51.214;6.768;2023-07-13T13:34:56;101345.84;;;24.76;40.85